This is the latest recevied weather packets stored in our database for station/object CE4ERM-13. If no packets are shown the sender has not sent any weather packets the latest 10 day(s).
| Time | Temp. | Humidity | Pressure | Rain* | Wind** | Luminosity | Snow |
|---|---|---|---|---|---|---|---|
| 1778196296 | 21.67° C | 40% | 1024.9 hPa | - | - | - | - |
| 1778195696 | 21.11° C | 42% | 1024.7 hPa | - | - | - | - |
| 1778195032 | 21.11° C | 45% | 1023.1 hPa | - | - | - | - |
| 1778194496 | 22.22° C | 41% | 1024 hPa | - | - | - | - |
| 1778193832 | 21.11° C | 45% | 1026.3 hPa | - | - | - | - |
| 1778193232 | 21.11° C | 44% | 1027.5 hPa | - | - | - | - |
| 1778192696 | 21.67° C | 43% | 1024.9 hPa | - | - | - | - |
| 1778192632 | 21.11° C | 45% | 1023.7 hPa | - | - | - | - |
| 1778191495 | 22.22° C | 41% | 1020.9 hPa | - | - | - | - |
| 1778191431 | 21.11° C | 44% | 1026.2 hPa | - | - | - | - |
| 1778190831 | 21.11° C | 44% | 1024 hPa | - | - | - | - |
| 1778190231 | 21.11° C | 43% | 1025.7 hPa | - | - | - | - |
| 1778189693 | 22.78° C | 37% | 1023.1 hPa | - | - | - | - |
| 1778189030 | 21.11° C | 43% | 1028 hPa | - | - | - | - |
| 1778186851 | 21.11° C | 42% | 1024.7 hPa | - | - | - | - |
| 1778186637 | 21.11° C | 42% | 1024.7 hPa | - | - | - | - |
| 1778186036 | 21.11° C | 44% | 1024.6 hPa | - | - | - | - |
| 1778185489 | 26.11° C | 31% | 1023.5 hPa | - | - | - | - |
| 1778185436 | 21.11° C | 44% | 1010.7 hPa | - | - | - | - |
| 1778184826 | 21.11° C | 44% | 1024.4 hPa | - | - | - | - |
| 1778183024 | 21.11° C | 43% | 1023.1 hPa | - | - | - | - |
| 1778182424 | 21.11° C | 43% | 1031 hPa | - | - | - | - |
| 1778181886 | 25° C | 33% | 1023 hPa | - | - | - | - |
| 1778181823 | 21.11° C | 44% | 1021.7 hPa | - | - | - | - |
| 1778181286 | 25° C | 33% | 1022.5 hPa | - | - | - | - |
* Rain since midnight (hover to see other rain measurements)
** Current wind speed in m/s (hover to see current wind gust speed)